Kamera  Kamera


Thunder radar more information blitzortung!


Rain radar more information rain snow radar



Nearby METAR Reports

   
EKOD - Odense, Hans Christian Andersen Airport
Distance from station: s 25 km
Updated: 29-09-2020 14:50
Partly Cloudy  
Partly Cloudy  
   Wind: South 20.4 km/h
Wind: South 20.4 km/h
Temperature: 17°C
Dew Point: 8°C
Humidity: 56%
Barometer: 1015 hPa
Clouds: Partly Cloudy
Visibility: More than 10 km
Cloud details: Few Clouds 3900 ft,
Partly Cloudy 4600 ft
EKOD 291250Z 18011KT 150V210 9999 FEW039 SCT046 17/08 Q1015
EKBI - Billund, Danmark
Distance from station: E 200 km
Updated: 29-09-2020 14:50
Mostly Cloudy  
Mostly Cloudy  
   Wind: South 16.7 km/h
Wind: South 16.7 km/h
Temperature: 15°C
Dew Point: 9°C
Humidity: 68%
Barometer: 1015 hPa
Clouds: Mostly Cloudy
Visibility: More than 10 km
Cloud details: Few Clouds 3000 ft,
Mostly Cloudy 6800 ft
EKBI 291250Z 18009KT 9999 FEW030 BKN068 15/09 Q1015
EHDL - KĂžbenhavns Lufthavn, Danmark
Distance from station: w 200 km
Updated: 29-09-2020 14:55
Overcast  
Overcast  
   Wind: SW 11.1 km/h
Wind: SW 11.1 km/h
Temperature: 16°C
Dew Point: 15°C
Humidity: 94%
Barometer: 1015 hPa
Clouds: Overcast
Visibility: More than 10 km
Cloud details: Few Clouds 600 ft,
Overcast 2200 ft
EHDL 291255Z AUTO 22006KT 160V280 9999 FEW006 OVC022 16/15 Q1015 WHT

Script developed by  Saratoga-weather.org Adapted for the template by  Weerstation Leuven